sensor_id;sensor_type;location;lat;lon;timestamp;pressure;altitude;pressure_sealevel;temperature;humidity
26657;BME280;14279;50.010;8.260;2023-04-30T00:00:38;100933.63;;;13.60;65.78
26657;BME280;14279;50.010;8.260;2023-04-30T00:03:03;100933.00;;;13.72;65.68
26657;BME280;14279;50.010;8.260;2023-04-30T00:05:28;100928.84;;;13.68;65.49
26657;BME280;14279;50.010;8.260;2023-04-30T00:07:54;100935.59;;;13.72;65.79
26657;BME280;14279;50.010;8.260;2023-04-30T00:10:19;100926.53;;;13.62;65.75
26657;BME280;14279;50.010;8.260;2023-04-30T00:12:44;100926.84;;;13.73;65.83
26657;BME280;14279;50.010;8.260;2023-04-30T00:15:10;100932.13;;;13.54;66.13
26657;BME280;14279;50.010;8.260;2023-04-30T00:17:36;100930.38;;;13.72;65.62
26657;BME280;14279;50.010;8.260;2023-04-30T00:20:01;100934.91;;;13.51;66.03
26657;BME280;14279;50.010;8.260;2023-04-30T00:22:27;100934.06;;;13.50;66.14
26657;BME280;14279;50.010;8.260;2023-04-30T00:24:52;100930.69;;;13.48;65.94
26657;BME280;14279;50.010;8.260;2023-04-30T00:27:17;100929.38;;;13.57;66.03
26657;BME280;14279;50.010;8.260;2023-04-30T00:29:42;100928.44;;;13.41;66.76
26657;BME280;14279;50.010;8.260;2023-04-30T00:32:08;100927.28;;;13.46;66.32
26657;BME280;14279;50.010;8.260;2023-04-30T00:34:33;100929.91;;;13.46;66.25
26657;BME280;14279;50.010;8.260;2023-04-30T00:36:58;100932.53;;;13.27;67.12
26657;BME280;14279;50.010;8.260;2023-04-30T00:39:23;100934.56;;;13.40;66.80
26657;BME280;14279;50.010;8.260;2023-04-30T00:41:49;100937.22;;;13.38;66.92
26657;BME280;14279;50.010;8.260;2023-04-30T00:44:14;100931.38;;;13.52;66.57
26657;BME280;14279;50.010;8.260;2023-04-30T00:46:39;100933.44;;;13.45;66.61
26657;BME280;14279;50.010;8.260;2023-04-30T00:49:05;100934.84;;;13.52;66.12
26657;BME280;14279;50.010;8.260;2023-04-30T00:51:31;100936.50;;;13.36;66.70
26657;BME280;14279;50.010;8.260;2023-04-30T00:54:00;100932.78;;;13.40;66.43
26657;BME280;14279;50.010;8.260;2023-04-30T00:56:27;100945.31;;;13.52;65.97
26657;BME280;14279;50.010;8.260;2023-04-30T00:58:53;100938.25;;;13.35;66.85
26657;BME280;14279;50.010;8.260;2023-04-30T01:01:25;100940.84;;;13.35;66.70
26657;BME280;14279;50.010;8.260;2023-04-30T01:03:51;100940.50;;;13.43;66.53
26657;BME280;14279;50.010;8.260;2023-04-30T01:06:16;100931.44;;;13.50;66.02
26657;BME280;14279;50.010;8.260;2023-04-30T01:08:42;100935.41;;;13.40;66.64
26657;BME280;14279;50.010;8.260;2023-04-30T01:14:21;100928.56;;;13.37;66.51
26657;BME280;14279;50.010;8.260;2023-04-30T01:17:01;100934.47;;;13.23;66.94
26657;BME280;14279;50.010;8.260;2023-04-30T01:19:44;100934.59;;;13.20;67.13
26657;BME280;14279;50.010;8.260;2023-04-30T01:22:49;100927.88;;;13.34;66.70
26657;BME280;14279;50.010;8.260;2023-04-30T01:28:19;100925.25;;;13.34;66.93
26657;BME280;14279;50.010;8.260;2023-04-30T01:30:44;100927.88;;;13.34;67.13
26657;BME280;14279;50.010;8.260;2023-04-30T01:33:11;100925.69;;;13.25;66.78
26657;BME280;14279;50.010;8.260;2023-04-30T01:41:25;100926.66;;;13.41;67.08
26657;BME280;14279;50.010;8.260;2023-04-30T01:47:03;100925.41;;;13.31;66.97
26657;BME280;14279;50.010;8.260;2023-04-30T01:52:17;100923.16;;;13.23;67.70
26657;BME280;14279;50.010;8.260;2023-04-30T01:54:54;100930.53;;;13.15;67.71
26657;BME280;14279;50.010;8.260;2023-04-30T01:57:28;100931.75;;;12.88;68.29
26657;BME280;14279;50.010;8.260;2023-04-30T01:59:55;100942.41;;;13.03;67.98
26657;BME280;14279;50.010;8.260;2023-04-30T02:02:21;100942.47;;;13.01;68.16
26657;BME280;14279;50.010;8.260;2023-04-30T02:04:46;100943.97;;;13.07;67.87
26657;BME280;14279;50.010;8.260;2023-04-30T02:07:19;100952.16;;;12.99;67.87
26657;BME280;14279;50.010;8.260;2023-04-30T02:09:50;100946.31;;;12.94;68.24
26657;BME280;14279;50.010;8.260;2023-04-30T02:12:15;100946.94;;;12.99;67.93
26657;BME280;14279;50.010;8.260;2023-04-30T02:14:40;100945.53;;;12.92;67.93
26657;BME280;14279;50.010;8.260;2023-04-30T02:17:06;100949.06;;;12.91;68.38
26657;BME280;14279;50.010;8.260;2023-04-30T02:19:31;100952.03;;;12.83;68.32
26657;BME280;14279;50.010;8.260;2023-04-30T02:21:56;100948.81;;;12.76;68.53
26657;BME280;14279;50.010;8.260;2023-04-30T02:24:21;100949.78;;;12.75;68.54
26657;BME280;14279;50.010;8.260;2023-04-30T02:26:47;100946.22;;;12.76;68.61
26657;BME280;14279;50.010;8.260;2023-04-30T02:29:12;100944.75;;;12.71;68.38
26657;BME280;14279;50.010;8.260;2023-04-30T02:31:37;100946.31;;;12.75;67.85
26657;BME280;14279;50.010;8.260;2023-04-30T02:34:02;100942.63;;;12.79;67.94
26657;BME280;14279;50.010;8.260;2023-04-30T02:36:27;100938.47;;;12.75;67.91
26657;BME280;14279;50.010;8.260;2023-04-30T02:38:53;100939.66;;;12.68;68.38
26657;BME280;14279;50.010;8.260;2023-04-30T02:41:18;100931.25;;;12.61;68.20
26657;BME280;14279;50.010;8.260;2023-04-30T02:43:43;100929.84;;;12.73;67.98
26657;BME280;14279;50.010;8.260;2023-04-30T02:46:08;100939.19;;;12.59;67.83
26657;BME280;14279;50.010;8.260;2023-04-30T02:48:33;100943.81;;;12.72;67.70
26657;BME280;14279;50.010;8.260;2023-04-30T02:50:59;100943.91;;;12.70;67.11
26657;BME280;14279;50.010;8.260;2023-04-30T02:53:24;100944.81;;;12.69;67.16
26657;BME280;14279;50.010;8.260;2023-04-30T02:55:49;100944.25;;;12.62;66.86
26657;BME280;14279;50.010;8.260;2023-04-30T02:58:15;100944.56;;;12.75;66.65
26657;BME280;14279;50.010;8.260;2023-04-30T03:00:40;100937.53;;;12.76;66.40
26657;BME280;14279;50.010;8.260;2023-04-30T03:03:05;100938.25;;;12.80;66.22
26657;BME280;14279;50.010;8.260;2023-04-30T03:05:31;100943.59;;;12.76;66.23
26657;BME280;14279;50.010;8.260;2023-04-30T03:07:56;100949.47;;;12.82;65.98
26657;BME280;14279;50.010;8.260;2023-04-30T03:10:21;100953.41;;;12.90;65.62
26657;BME280;14279;50.010;8.260;2023-04-30T03:12:46;100955.19;;;12.90;65.26
26657;BME280;14279;50.010;8.260;2023-04-30T03:15:12;100953.59;;;12.87;65.39
26657;BME280;14279;50.010;8.260;2023-04-30T03:17:37;100953.00;;;12.81;65.75
26657;BME280;14279;50.010;8.260;2023-04-30T03:20:02;100954.53;;;12.66;66.24
26657;BME280;14279;50.010;8.260;2023-04-30T03:22:28;100949.06;;;12.72;66.14
26657;BME280;14279;50.010;8.260;2023-04-30T03:24:53;100950.19;;;12.66;65.72
26657;BME280;14279;50.010;8.260;2023-04-30T03:27:18;100940.44;;;12.70;65.21
26657;BME280;14279;50.010;8.260;2023-04-30T03:29:43;100945.66;;;12.70;65.55
26657;BME280;14279;50.010;8.260;2023-04-30T03:32:09;100943.19;;;12.67;65.39
26657;BME280;14279;50.010;8.260;2023-04-30T03:34:34;100945.22;;;12.60;65.61
26657;BME280;14279;50.010;8.260;2023-04-30T03:36:59;100949.63;;;12.59;65.76
26657;BME280;14279;50.010;8.260;2023-04-30T03:39:26;100955.47;;;12.65;65.76
26657;BME280;14279;50.010;8.260;2023-04-30T03:41:51;100952.09;;;12.62;65.63
26657;BME280;14279;50.010;8.260;2023-04-30T03:44:16;100947.72;;;12.63;65.47
26657;BME280;14279;50.010;8.260;2023-04-30T03:46:41;100950.25;;;12.65;65.50
26657;BME280;14279;50.010;8.260;2023-04-30T03:49:10;100943.66;;;12.56;65.45
26657;BME280;14279;50.010;8.260;2023-04-30T03:51:36;100943.81;;;12.53;65.90
26657;BME280;14279;50.010;8.260;2023-04-30T03:54:04;100953.00;;;12.61;65.90
26657;BME280;14279;50.010;8.260;2023-04-30T03:56:30;100945.31;;;12.58;65.59
26657;BME280;14279;50.010;8.260;2023-04-30T03:58:55;100937.91;;;12.68;66.02
26657;BME280;14279;50.010;8.260;2023-04-30T04:01:21;100940.56;;;12.47;65.58
26657;BME280;14279;50.010;8.260;2023-04-30T04:03:46;100945.44;;;12.55;64.84
26657;BME280;14279;50.010;8.260;2023-04-30T04:06:11;100948.84;;;12.57;64.78
26657;BME280;14279;50.010;8.260;2023-04-30T04:08:36;100951.25;;;12.62;64.90
26657;BME280;14279;50.010;8.260;2023-04-30T04:11:01;100957.38;;;12.61;65.15
26657;BME280;14279;50.010;8.260;2023-04-30T04:13:27;100956.19;;;12.68;64.96
26657;BME280;14279;50.010;8.260;2023-04-30T04:15:52;100962.47;;;12.64;65.08
26657;BME280;14279;50.010;8.260;2023-04-30T04:18:17;100959.16;;;12.60;64.86
26657;BME280;14279;50.010;8.260;2023-04-30T04:20:42;100957.81;;;12.71;64.29
26657;BME280;14279;50.010;8.260;2023-04-30T04:23:07;100954.00;;;12.78;64.35
26657;BME280;14279;50.010;8.260;2023-04-30T04:25:33;100956.19;;;12.87;64.53
26657;BME280;14279;50.010;8.260;2023-04-30T04:27:59;100964.97;;;12.86;64.67
26657;BME280;14279;50.010;8.260;2023-04-30T04:30:24;100969.72;;;12.76;64.49
26657;BME280;14279;50.010;8.260;2023-04-30T04:32:50;100967.41;;;12.70;64.08
26657;BME280;14279;50.010;8.260;2023-04-30T04:35:18;100965.78;;;12.48;63.91
26657;BME280;14279;50.010;8.260;2023-04-30T04:37:43;100972.50;;;12.73;63.83
26657;BME280;14279;50.010;8.260;2023-04-30T04:40:08;100974.00;;;12.79;63.44
26657;BME280;14279;50.010;8.260;2023-04-30T04:42:36;100974.25;;;12.73;63.78
26657;BME280;14279;50.010;8.260;2023-04-30T04:45:03;100986.25;;;12.58;63.72
26657;BME280;14279;50.010;8.260;2023-04-30T04:47:28;100977.13;;;12.47;63.80
26657;BME280;14279;50.010;8.260;2023-04-30T04:49:54;100972.09;;;12.43;63.51
26657;BME280;14279;50.010;8.260;2023-04-30T04:52:19;100978.41;;;12.58;63.12
26657;BME280;14279;50.010;8.260;2023-04-30T04:54:44;100972.34;;;12.57;63.14
26657;BME280;14279;50.010;8.260;2023-04-30T04:57:09;100979.63;;;12.70;62.66
26657;BME280;14279;50.010;8.260;2023-04-30T04:59:35;100981.44;;;12.68;62.67
26657;BME280;14279;50.010;8.260;2023-04-30T05:02:00;100982.84;;;12.56;62.62
26657;BME280;14279;50.010;8.260;2023-04-30T05:04:25;100972.75;;;12.48;62.57
26657;BME280;14279;50.010;8.260;2023-04-30T05:06:51;100972.91;;;12.64;62.29
26657;BME280;14279;50.010;8.260;2023-04-30T05:09:18;100979.25;;;12.77;61.64
26657;BME280;14279;50.010;8.260;2023-04-30T05:11:44;100977.56;;;12.96;61.36
26657;BME280;14279;50.010;8.260;2023-04-30T05:14:10;100976.03;;;12.91;60.86
26657;BME280;14279;50.010;8.260;2023-04-30T05:16:35;100977.09;;;12.87;61.33
26657;BME280;14279;50.010;8.260;2023-04-30T05:19:00;100976.78;;;12.93;61.29
26657;BME280;14279;50.010;8.260;2023-04-30T05:21:25;100977.81;;;13.10;60.69
26657;BME280;14279;50.010;8.260;2023-04-30T05:23:53;100978.31;;;12.99;60.31
26657;BME280;14279;50.010;8.260;2023-04-30T05:26:18;100981.06;;;12.96;60.48
26657;BME280;14279;50.010;8.260;2023-04-30T05:28:44;100982.59;;;13.00;59.94
26657;BME280;14279;50.010;8.260;2023-04-30T05:31:09;100981.38;;;13.07;59.50
26657;BME280;14279;50.010;8.260;2023-04-30T05:33:34;100987.69;;;12.84;59.53
26657;BME280;14279;50.010;8.260;2023-04-30T05:36:01;100982.88;;;12.94;59.38
26657;BME280;14279;50.010;8.260;2023-04-30T05:38:26;100987.03;;;13.17;58.94
26657;BME280;14279;50.010;8.260;2023-04-30T05:40:52;100987.47;;;12.89;59.65
26657;BME280;14279;50.010;8.260;2023-04-30T05:43:17;100985.91;;;13.23;58.72
26657;BME280;14279;50.010;8.260;2023-04-30T05:45:42;100989.22;;;13.07;58.88
26657;BME280;14279;50.010;8.260;2023-04-30T05:48:07;100988.03;;;12.96;59.10
26657;BME280;14279;50.010;8.260;2023-04-30T05:50:32;100995.38;;;13.26;58.71
26657;BME280;14279;50.010;8.260;2023-04-30T05:52:58;100986.59;;;13.27;58.49
26657;BME280;14279;50.010;8.260;2023-04-30T05:55:23;100984.63;;;12.93;59.04
26657;BME280;14279;50.010;8.260;2023-04-30T05:57:48;100989.00;;;13.12;59.16
26657;BME280;14279;50.010;8.260;2023-04-30T06:00:14;100988.41;;;13.07;59.14
26657;BME280;14279;50.010;8.260;2023-04-30T06:02:40;100988.44;;;13.25;58.81
26657;BME280;14279;50.010;8.260;2023-04-30T06:05:06;100984.88;;;13.08;59.23
26657;BME280;14279;50.010;8.260;2023-04-30T06:07:32;100990.72;;;12.94;59.65
26657;BME280;14279;50.010;8.260;2023-04-30T06:09:57;100990.44;;;12.81;60.05
26657;BME280;14279;50.010;8.260;2023-04-30T06:12:23;100986.09;;;12.61;60.68
26657;BME280;14279;50.010;8.260;2023-04-30T06:14:48;100991.50;;;12.77;60.54
26657;BME280;14279;50.010;8.260;2023-04-30T06:17:13;100987.03;;;12.60;60.87
26657;BME280;14279;50.010;8.260;2023-04-30T06:19:39;100989.63;;;12.60;60.83
26657;BME280;14279;50.010;8.260;2023-04-30T06:22:05;100989.31;;;12.87;60.41
26657;BME280;14279;50.010;8.260;2023-04-30T06:24:30;100982.50;;;12.44;61.16
26657;BME280;14279;50.010;8.260;2023-04-30T06:26:55;100995.84;;;12.76;61.15
26657;BME280;14279;50.010;8.260;2023-04-30T06:29:20;100992.97;;;12.83;60.30
26657;BME280;14279;50.010;8.260;2023-04-30T06:31:48;100996.50;;;12.82;59.92
26657;BME280;14279;50.010;8.260;2023-04-30T06:34:13;100999.75;;;12.87;59.82
26657;BME280;14279;50.010;8.260;2023-04-30T06:36:39;101002.03;;;12.75;59.99
26657;BME280;14279;50.010;8.260;2023-04-30T06:39:04;100999.53;;;12.91;59.16
26657;BME280;14279;50.010;8.260;2023-04-30T06:41:29;100998.63;;;13.12;59.11
26657;BME280;14279;50.010;8.260;2023-04-30T06:43:54;100998.84;;;12.88;59.07
26657;BME280;14279;50.010;8.260;2023-04-30T06:46:20;101009.28;;;12.88;59.16
26657;BME280;14279;50.010;8.260;2023-04-30T06:48:45;101003.56;;;12.99;59.15
26657;BME280;14279;50.010;8.260;2023-04-30T06:51:10;100999.47;;;13.12;58.45
26657;BME280;14279;50.010;8.260;2023-04-30T06:53:35;101002.66;;;13.19;58.02
26657;BME280;14279;50.010;8.260;2023-04-30T06:56:01;101001.47;;;13.07;57.73
26657;BME280;14279;50.010;8.260;2023-04-30T06:58:26;100996.66;;;13.17;57.79
26657;BME280;14279;50.010;8.260;2023-04-30T07:00:51;100996.97;;;13.47;57.06
26657;BME280;14279;50.010;8.260;2023-04-30T07:03:17;100993.69;;;13.44;57.04
26657;BME280;14279;50.010;8.260;2023-04-30T07:05:43;100991.53;;;13.33;57.39
26657;BME280;14279;50.010;8.260;2023-04-30T07:08:08;100990.41;;;13.38;57.17
26657;BME280;14279;50.010;8.260;2023-04-30T07:10:33;100999.44;;;13.31;57.59
26657;BME280;14279;50.010;8.260;2023-04-30T07:12:59;100992.38;;;13.33;56.13
26657;BME280;14279;50.010;8.260;2023-04-30T07:15:24;100998.16;;;13.40;55.45
26657;BME280;14279;50.010;8.260;2023-04-30T07:17:50;100992.44;;;13.51;55.55
26657;BME280;14279;50.010;8.260;2023-04-30T07:20:18;100996.75;;;13.52;55.72
26657;BME280;14279;50.010;8.260;2023-04-30T07:22:43;101000.16;;;13.54;55.71
26657;BME280;14279;50.010;8.260;2023-04-30T07:25:12;101000.50;;;13.27;54.98
26657;BME280;14279;50.010;8.260;2023-04-30T07:27:37;100995.91;;;13.51;55.02
26657;BME280;14279;50.010;8.260;2023-04-30T07:30:04;100990.78;;;13.67;54.51
26657;BME280;14279;50.010;8.260;2023-04-30T07:32:29;100987.78;;;13.75;54.43
26657;BME280;14279;50.010;8.260;2023-04-30T07:34:55;100987.25;;;13.68;53.84
26657;BME280;14279;50.010;8.260;2023-04-30T07:37:23;100988.56;;;13.77;53.93
26657;BME280;14279;50.010;8.260;2023-04-30T07:39:48;100991.28;;;13.93;52.93
26657;BME280;14279;50.010;8.260;2023-04-30T07:42:13;100990.56;;;13.90;52.94
26657;BME280;14279;50.010;8.260;2023-04-30T07:44:39;100994.88;;;13.91;53.19
26657;BME280;14279;50.010;8.260;2023-04-30T07:47:05;100988.31;;;14.00;52.66
26657;BME280;14279;50.010;8.260;2023-04-30T07:49:30;100986.47;;;13.84;52.70
26657;BME280;14279;50.010;8.260;2023-04-30T07:51:55;100983.69;;;14.05;52.09
26657;BME280;14279;50.010;8.260;2023-04-30T07:54:22;100989.84;;;14.39;51.57
26657;BME280;14279;50.010;8.260;2023-04-30T07:56:47;100987.28;;;14.37;51.32
26657;BME280;14279;50.010;8.260;2023-04-30T07:59:13;100995.41;;;13.97;51.89
26657;BME280;14279;50.010;8.260;2023-04-30T08:01:38;100992.63;;;14.01;51.48
26657;BME280;14279;50.010;8.260;2023-04-30T08:04:03;100986.06;;;14.09;51.06
26657;BME280;14279;50.010;8.260;2023-04-30T08:06:28;100994.22;;;14.38;51.68
26657;BME280;14279;50.010;8.260;2023-04-30T08:08:54;100993.78;;;14.64;51.40
26657;BME280;14279;50.010;8.260;2023-04-30T08:11:19;100994.31;;;14.70;50.40
26657;BME280;14279;50.010;8.260;2023-04-30T08:13:45;100993.06;;;14.94;49.97
26657;BME280;14279;50.010;8.260;2023-04-30T08:16:11;100999.78;;;14.66;50.39
26657;BME280;14279;50.010;8.260;2023-04-30T08:18:46;100993.59;;;14.84;50.30
26657;BME280;14279;50.010;8.260;2023-04-30T08:21:34;101002.53;;;14.80;50.62
26657;BME280;14279;50.010;8.260;2023-04-30T08:24:00;101001.88;;;14.77;50.18
26657;BME280;14279;50.010;8.260;2023-04-30T08:26:25;100993.44;;;15.03;50.03
26657;BME280;14279;50.010;8.260;2023-04-30T08:28:50;100984.59;;;14.72;50.10
26657;BME280;14279;50.010;8.260;2023-04-30T08:31:16;100994.50;;;14.50;50.47
26657;BME280;14279;50.010;8.260;2023-04-30T08:33:41;100993.56;;;14.68;50.56
26657;BME280;14279;50.010;8.260;2023-04-30T08:36:07;100985.72;;;15.00;50.29
26657;BME280;14279;50.010;8.260;2023-04-30T08:38:32;100989.72;;;14.92;49.67
26657;BME280;14279;50.010;8.260;2023-04-30T08:41:08;100981.91;;;15.06;49.51
26657;BME280;14279;50.010;8.260;2023-04-30T08:43:34;100980.13;;;15.07;49.82
26657;BME280;14279;50.010;8.260;2023-04-30T08:46:05;100983.00;;;15.50;49.53
26657;BME280;14279;50.010;8.260;2023-04-30T08:48:31;100987.81;;;15.42;49.02
26657;BME280;14279;50.010;8.260;2023-04-30T08:51:03;100988.25;;;15.34;48.27
26657;BME280;14279;50.010;8.260;2023-04-30T08:53:30;100985.41;;;15.53;47.40
26657;BME280;14279;50.010;8.260;2023-04-30T08:55:58;100988.69;;;15.26;47.67
26657;BME280;14279;50.010;8.260;2023-04-30T08:58:24;100993.06;;;15.42;47.88
26657;BME280;14279;50.010;8.260;2023-04-30T09:04:12;100988.44;;;15.61;47.18
26657;BME280;14279;50.010;8.260;2023-04-30T09:06:53;100989.09;;;15.65;47.81
26657;BME280;14279;50.010;8.260;2023-04-30T09:09:41;100984.69;;;15.82;47.57
26657;BME280;14279;50.010;8.260;2023-04-30T09:12:16;100977.16;;;15.91;47.85
26657;BME280;14279;50.010;8.260;2023-04-30T09:15:04;100984.28;;;16.04;47.15
26657;BME280;14279;50.010;8.260;2023-04-30T09:17:31;100979.44;;;15.82;47.33
26657;BME280;14279;50.010;8.260;2023-04-30T09:22:33;100981.31;;;15.49;47.35
26657;BME280;14279;50.010;8.260;2023-04-30T09:24:58;100977.44;;;15.71;46.77
26657;BME280;14279;50.010;8.260;2023-04-30T09:27:24;100973.66;;;15.91;46.54
26657;BME280;14279;50.010;8.260;2023-04-30T09:29:49;100979.41;;;15.98;46.47
26657;BME280;14279;50.010;8.260;2023-04-30T09:32:14;100977.84;;;16.10;46.74
26657;BME280;14279;50.010;8.260;2023-04-30T09:34:43;100984.09;;;15.92;46.26
26657;BME280;14279;50.010;8.260;2023-04-30T09:37:09;100968.72;;;16.01;46.81
26657;BME280;14279;50.010;8.260;2023-04-30T09:39:55;100970.63;;;16.28;45.88
26657;BME280;14279;50.010;8.260;2023-04-30T09:42:20;100967.91;;;16.29;45.88
26657;BME280;14279;50.010;8.260;2023-04-30T09:44:46;100964.59;;;16.11;45.51
26657;BME280;14279;50.010;8.260;2023-04-30T09:47:16;100956.53;;;16.29;44.82
26657;BME280;14279;50.010;8.260;2023-04-30T09:49:43;100948.59;;;16.30;44.08
26657;BME280;14279;50.010;8.260;2023-04-30T09:52:09;100960.09;;;15.99;43.36
26657;BME280;14279;50.010;8.260;2023-04-30T09:54:35;100958.22;;;16.30;43.90
26657;BME280;14279;50.010;8.260;2023-04-30T09:57:01;100957.69;;;16.25;41.85
26657;BME280;14279;50.010;8.260;2023-04-30T10:01:57;100961.72;;;16.45;40.98
26657;BME280;14279;50.010;8.260;2023-04-30T10:04:22;100960.75;;;16.02;42.05
26657;BME280;14279;50.010;8.260;2023-04-30T10:06:51;100949.53;;;16.29;42.85
26657;BME280;14279;50.010;8.260;2023-04-30T10:09:49;100950.44;;;16.43;42.17
26657;BME280;14279;50.010;8.260;2023-04-30T10:12:23;100950.44;;;16.14;40.70
26657;BME280;14279;50.010;8.260;2023-04-30T10:14:54;100938.16;;;16.43;41.22
26657;BME280;14279;50.010;8.260;2023-04-30T10:17:25;100935.53;;;16.29;42.67
26657;BME280;14279;50.010;8.260;2023-04-30T10:19:51;100930.28;;;16.29;42.28
26657;BME280;14279;50.010;8.260;2023-04-30T10:22:18;100928.94;;;16.50;42.64
26657;BME280;14279;50.010;8.260;2023-04-30T10:24:44;100934.31;;;16.49;41.24
26657;BME280;14279;50.010;8.260;2023-04-30T10:27:11;100926.34;;;16.36;42.31
26657;BME280;14279;50.010;8.260;2023-04-30T10:29:36;100917.41;;;16.38;42.61
26657;BME280;14279;50.010;8.260;2023-04-30T10:32:02;100917.44;;;16.80;41.95
26657;BME280;14279;50.010;8.260;2023-04-30T10:37:42;100911.31;;;16.38;42.06
26657;BME280;14279;50.010;8.260;2023-04-30T10:40:13;100915.72;;;16.52;41.86
26657;BME280;14279;50.010;8.260;2023-04-30T10:42:46;100908.84;;;16.64;40.72
26657;BME280;14279;50.010;8.260;2023-04-30T10:45:14;100906.00;;;16.96;40.66
26657;BME280;14279;50.010;8.260;2023-04-30T10:47:43;100896.72;;;16.76;40.59
26657;BME280;14279;50.010;8.260;2023-04-30T10:50:11;100895.97;;;17.16;40.39
26657;BME280;14279;50.010;8.260;2023-04-30T10:52:37;100904.53;;;17.32;41.18
26657;BME280;14279;50.010;8.260;2023-04-30T10:55:05;100892.47;;;17.15;40.53
26657;BME280;14279;50.010;8.260;2023-04-30T10:57:30;100888.72;;;17.32;40.08
26657;BME280;14279;50.010;8.260;2023-04-30T11:02:42;100885.72;;;17.51;38.81
26657;BME280;14279;50.010;8.260;2023-04-30T11:05:14;100886.00;;;17.21;39.97
26657;BME280;14279;50.010;8.260;2023-04-30T11:07:50;100879.16;;;17.31;40.15
26657;BME280;14279;50.010;8.260;2023-04-30T11:10:17;100882.66;;;17.45;40.65
26657;BME280;14279;50.010;8.260;2023-04-30T11:12:49;100878.88;;;17.49;39.92
26657;BME280;14279;50.010;8.260;2023-04-30T11:15:17;100889.69;;;17.31;40.33
26657;BME280;14279;50.010;8.260;2023-04-30T11:17:43;100875.91;;;17.27;41.35
26657;BME280;14279;50.010;8.260;2023-04-30T11:20:12;100872.78;;;17.61;41.18
26657;BME280;14279;50.010;8.260;2023-04-30T11:22:39;100864.97;;;17.72;40.79
26657;BME280;14279;50.010;8.260;2023-04-30T11:25:06;100863.19;;;17.47;41.81
26657;BME280;14279;50.010;8.260;2023-04-30T11:27:34;100858.88;;;17.59;42.04
26657;BME280;14279;50.010;8.260;2023-04-30T11:30:01;100860.41;;;17.36;41.77
26657;BME280;14279;50.010;8.260;2023-04-30T11:32:33;100854.56;;;17.58;41.98
26657;BME280;14279;50.010;8.260;2023-04-30T11:35:05;100857.34;;;17.16;42.70
26657;BME280;14279;50.010;8.260;2023-04-30T11:37:31;100849.09;;;17.61;42.02
26657;BME280;14279;50.010;8.260;2023-04-30T11:40:00;100860.25;;;17.65;41.87
26657;BME280;14279;50.010;8.260;2023-04-30T11:42:26;100852.00;;;17.95;41.88
26657;BME280;14279;50.010;8.260;2023-04-30T11:44:51;100849.44;;;17.69;42.05
26657;BME280;14279;50.010;8.260;2023-04-30T11:47:16;100848.75;;;17.92;41.63
26657;BME280;14279;50.010;8.260;2023-04-30T11:49:42;100852.56;;;18.00;41.39
26657;BME280;14279;50.010;8.260;2023-04-30T11:52:07;100847.41;;;17.47;41.97
26657;BME280;14279;50.010;8.260;2023-04-30T11:54:37;100845.91;;;17.43;42.43
26657;BME280;14279;50.010;8.260;2023-04-30T11:57:02;100846.75;;;17.82;41.67
26657;BME280;14279;50.010;8.260;2023-04-30T11:59:29;100829.50;;;17.65;41.59
26657;BME280;14279;50.010;8.260;2023-04-30T12:01:55;100828.63;;;17.91;41.82
26657;BME280;14279;50.010;8.260;2023-04-30T12:04:20;100833.09;;;17.77;41.48
26657;BME280;14279;50.010;8.260;2023-04-30T12:06:46;100834.31;;;17.97;41.04
26657;BME280;14279;50.010;8.260;2023-04-30T12:09:11;100827.28;;;17.85;41.44
26657;BME280;14279;50.010;8.260;2023-04-30T12:11:37;100827.66;;;18.30;40.45
26657;BME280;14279;50.010;8.260;2023-04-30T12:14:05;100825.03;;;18.30;40.91
26657;BME280;14279;50.010;8.260;2023-04-30T12:16:45;100826.56;;;17.83;41.38
26657;BME280;14279;50.010;8.260;2023-04-30T12:19:13;100828.75;;;18.15;41.61
26657;BME280;14279;50.010;8.260;2023-04-30T12:21:40;100827.84;;;18.40;40.41
26657;BME280;14279;50.010;8.260;2023-04-30T12:24:06;100824.06;;;18.31;40.20
26657;BME280;14279;50.010;8.260;2023-04-30T12:26:39;100822.78;;;18.86;39.71
26657;BME280;14279;50.010;8.260;2023-04-30T12:29:07;100820.00;;;18.76;39.28
26657;BME280;14279;50.010;8.260;2023-04-30T12:31:33;100818.91;;;18.78;39.82
26657;BME280;14279;50.010;8.260;2023-04-30T12:34:02;100807.16;;;18.10;41.17
26657;BME280;14279;50.010;8.260;2023-04-30T12:36:29;100817.31;;;18.65;40.28
26657;BME280;14279;50.010;8.260;2023-04-30T12:39:08;100811.88;;;18.90;39.51
26657;BME280;14279;50.010;8.260;2023-04-30T12:41:39;100815.88;;;18.10;40.21
26657;BME280;14279;50.010;8.260;2023-04-30T12:44:42;100808.50;;;18.15;39.96
26657;BME280;14279;50.010;8.260;2023-04-30T12:47:08;100799.06;;;18.86;39.47
26657;BME280;14279;50.010;8.260;2023-04-30T12:49:34;100805.56;;;18.93;39.57
26657;BME280;14279;50.010;8.260;2023-04-30T12:52:08;100799.25;;;18.71;39.19
26657;BME280;14279;50.010;8.260;2023-04-30T12:54:34;100790.19;;;18.87;38.36
26657;BME280;14279;50.010;8.260;2023-04-30T12:57:10;100793.13;;;18.95;37.99
26657;BME280;14279;50.010;8.260;2023-04-30T12:59:38;100780.81;;;19.18;37.55
26657;BME280;14279;50.010;8.260;2023-04-30T13:02:05;100778.69;;;19.23;37.73
26657;BME280;14279;50.010;8.260;2023-04-30T13:04:31;100765.31;;;19.02;37.97
26657;BME280;14279;50.010;8.260;2023-04-30T13:06:56;100763.44;;;19.16;37.82
26657;BME280;14279;50.010;8.260;2023-04-30T13:09:22;100764.41;;;19.15;38.21
26657;BME280;14279;50.010;8.260;2023-04-30T13:11:47;100760.66;;;19.06;37.07
26657;BME280;14279;50.010;8.260;2023-04-30T13:14:15;100752.78;;;19.29;37.45
26657;BME280;14279;50.010;8.260;2023-04-30T13:16:41;100754.13;;;19.46;36.63
26657;BME280;14279;50.010;8.260;2023-04-30T13:19:07;100749.94;;;19.55;36.74
26657;BME280;14279;50.010;8.260;2023-04-30T13:21:32;100746.06;;;19.47;35.71